Time;durP1;ratioP1;P1;durP2;ratioP2;P2;SDS_P1;SDS_P2;PMS_P1;PMS_P2;Temp;Humidity;BMP_temperature;BMP_pressure;BME280_temperature;BME280_humidity;BME280_pressure;Samples;Min_cycle;Max_cycle;Signal;HPM_P1;HPM_P2
2023/04/04 00:00:30;;;;;;;2.07;1.30;;;2.50;55.00;;;;;;6082045;23;20794;-72
2023/04/04 00:02:56;;;;;;;3.00;1.60;;;2.40;55.10;;;;;;6081555;23;20180;-71
2023/04/04 00:05:21;;;;;;;4.70;1.80;;;2.40;55.40;;;;;;6082274;23;20361;-71
2023/04/04 00:07:47;;;;;;;5.63;1.80;;;2.30;55.50;;;;;;6081759;23;20137;-70
2023/04/04 00:10:13;;;;;;;3.70;1.80;;;2.30;55.70;;;;;;6082072;23;20144;-71
2023/04/04 00:12:39;;;;;;;5.23;2.83;;;2.40;55.80;;;;;;6075727;23;20173;-71
2023/04/04 00:15:05;;;;;;;5.70;1.93;;;2.50;55.50;;;;;;6081893;23;20383;-69
2023/04/04 00:17:31;;;;;;;2.40;1.40;;;2.50;55.40;;;;;;6085157;23;20168;-71
2023/04/04 00:19:57;;;;;;;2.20;1.67;;;2.50;55.50;;;;;;6091015;23;20357;-71
2023/04/04 00:22:23;;;;;;;2.50;1.87;;;2.40;55.60;;;;;;6087423;23;20361;-71
2023/04/04 00:24:48;;;;;;;3.27;1.70;;;2.40;55.90;;;;;;6088340;23;20369;-72
2023/04/04 00:27:15;;;;;;;3.40;1.87;;;2.30;56.10;;;;;;6090731;23;20148;-71
2023/04/04 00:29:40;;;;;;;3.20;1.70;;;2.30;56.30;;;;;;6092268;23;20468;-70
2023/04/04 00:32:06;;;;;;;4.33;2.13;;;2.30;56.50;;;;;;6069694;23;20409;-70
2023/04/04 00:34:35;;;;;;;3.67;2.20;;;2.30;56.40;;;;;;6088284;23;20160;-72
2023/04/04 00:37:00;;;;;;;2.33;1.40;;;2.40;56.40;;;;;;6054723;23;20419;-71
2023/04/04 00:39:26;;;;;;;2.47;1.63;;;2.30;56.40;;;;;;6073320;23;20671;-71
2023/04/04 00:41:52;;;;;;;3.20;1.80;;;2.30;56.60;;;;;;6082468;23;20197;-71
2023/04/04 00:44:17;;;;;;;3.47;1.67;;;2.20;56.90;;;;;;6051536;23;20145;-72
2023/04/04 00:46:43;;;;;;;4.10;2.77;;;2.20;57.30;;;;;;6046742;23;20216;-70
2023/04/04 00:49:09;;;;;;;5.40;2.00;;;2.20;57.50;;;;;;6070108;23;20377;-71
2023/04/04 00:51:35;;;;;;;4.00;1.70;;;2.10;57.70;;;;;;6081091;23;20169;-71
2023/04/04 00:54:02;;;;;;;3.40;1.80;;;2.10;58.10;;;;;;6071813;23;20539;-72
2023/04/04 00:56:29;;;;;;;2.90;1.50;;;2.00;58.30;;;;;;6081653;23;20420;-71
2023/04/04 00:58:56;;;;;;;2.40;1.70;;;2.00;58.60;;;;;;6081705;23;20362;-71
2023/04/04 01:01:24;;;;;;;3.00;1.80;;;2.00;59.10;;;;;;6081662;23;20401;-72
2023/04/04 01:03:50;;;;;;;4.80;1.50;;;2.00;59.10;;;;;;6081469;23;20628;-71
2023/04/04 01:06:16;;;;;;;5.53;1.83;;;2.00;58.90;;;;;;6046680;23;20381;-72
2023/04/04 01:08:42;;;;;;;4.90;2.10;;;1.90;59.10;;;;;;6070830;23;20440;-71
2023/04/04 01:11:09;;;;;;;6.03;1.63;;;1.90;59.00;;;;;;6081143;23;20373;-72
2023/04/04 01:13:36;;;;;;;3.93;1.57;;;1.90;59.10;;;;;;6081889;23;20608;-69
2023/04/04 01:16:01;;;;;;;2.03;1.60;;;2.00;58.90;;;;;;6082739;23;20369;-70
2023/04/04 01:18:28;;;;;;;3.50;1.83;;;2.00;58.70;;;;;;6047849;23;20424;-71
2023/04/04 01:21:11;;;;;;;2.83;1.63;;;2.00;58.40;;;;;;6047553;23;20227;-70
2023/04/04 01:23:50;;;;;;;10.43;2.63;;;2.00;58.40;;;;;;6047306;23;20384;-69
2023/04/04 01:26:17;;;;;;;3.60;1.47;;;2.00;58.70;;;;;;6046396;23;20822;-71
2023/04/04 01:28:43;;;;;;;3.87;1.87;;;1.90;58.80;;;;;;6070371;23;20787;-71
2023/04/04 01:31:14;;;;;;;3.43;1.70;;;1.90;59.20;;;;;;6046473;23;20805;-71
2023/04/04 01:33:45;;;;;;;2.73;1.73;;;1.80;59.80;;;;;;6069584;23;20429;-71
2023/04/04 01:36:42;;;;;;;3.00;1.60;;;1.80;60.30;;;;;;6046866;23;20378;-71
2023/04/04 01:39:34;;;;;;;3.20;2.20;;;1.90;60.60;;;;;;6046763;23;20378;-70
2023/04/04 01:42:02;;;;;;;4.13;1.87;;;2.00;59.90;;;;;;6045495;23;20535;-69
2023/04/04 01:44:29;;;;;;;4.37;1.90;;;2.00;59.80;;;;;;6046485;23;20386;-71
2023/04/04 01:46:54;;;;;;;5.90;2.63;;;2.00;59.60;;;;;;6046345;23;20441;-71
2023/04/04 01:49:22;;;;;;;3.30;1.60;;;1.90;60.00;;;;;;6069846;23;20153;-72
2023/04/04 01:51:49;;;;;;;3.60;1.60;;;1.80;60.60;;;;;;6046296;23;20410;-71
2023/04/04 01:54:15;;;;;;;3.33;2.10;;;1.70;61.60;;;;;;6080909;23;20403;-71
2023/04/04 01:56:41;;;;;;;3.80;1.40;;;1.60;62.50;;;;;;6080768;23;20409;-71
2023/04/04 01:59:07;;;;;;;6.10;2.23;;;1.50;63.00;;;;;;6070069;23;20401;-71
2023/04/04 02:01:33;;;;;;;3.97;1.93;;;1.50;63.70;;;;;;6045415;23;20427;-70
2023/04/04 02:03:59;;;;;;;3.83;2.20;;;1.60;63.20;;;;;;6080546;23;20377;-70
2023/04/04 02:06:25;;;;;;;5.53;1.67;;;1.70;62.10;;;;;;6046376;23;20854;-70
2023/04/04 02:08:51;;;;;;;2.30;1.83;;;1.80;61.40;;;;;;6049279;23;20385;-70
2023/04/04 02:11:17;;;;;;;4.80;1.57;;;1.80;61.20;;;;;;6082205;23;20460;-71
2023/04/04 02:13:43;;;;;;;4.43;1.53;;;1.70;61.20;;;;;;6080254;23;20145;-72
2023/04/04 02:16:09;;;;;;;4.17;1.70;;;1.70;61.30;;;;;;6046135;23;20153;-71
2023/04/04 02:18:35;;;;;;;4.10;1.73;;;1.70;61.70;;;;;;6069581;23;20515;-70
2023/04/04 02:21:01;;;;;;;5.33;1.70;;;1.60;62.30;;;;;;6046057;23;20374;-70
2023/04/04 02:23:28;;;;;;;8.73;2.40;;;1.50;62.70;;;;;;6080728;23;20721;-70
2023/04/04 02:25:53;;;;;;;4.10;2.23;;;1.50;63.10;;;;;;6080294;23;20365;-70
2023/04/04 02:28:19;;;;;;;3.73;1.63;;;1.40;63.60;;;;;;6045551;23;20149;-71
2023/04/04 02:30:46;;;;;;;4.27;1.77;;;1.50;65.60;;;;;;6069768;23;20158;-71
2023/04/04 02:33:12;;;;;;;4.07;1.70;;;1.40;64.60;;;;;;6021058;23;20405;-71
2023/04/04 02:35:38;;;;;;;3.30;1.93;;;1.40;65.10;;;;;;6070862;23;20212;-71
2023/04/04 02:38:04;;;;;;;1.90;1.37;;;1.40;65.00;;;;;;6045728;23;20181;-71
2023/04/04 02:40:41;;;;;;;3.80;2.03;;;1.40;65.10;;;;;;6070074;23;20424;-71
2023/04/04 02:43:07;;;;;;;4.90;1.97;;;1.30;65.80;;;;;;6045083;23;20433;-71
2023/04/04 02:45:34;;;;;;;4.87;1.90;;;1.30;66.40;;;;;;6045727;23;20676;-70
2023/04/04 02:48:15;;;;;;;2.47;1.33;;;1.30;67.00;;;;;;6068926;23;20393;-71
2023/04/04 02:50:46;;;;;;;3.50;1.80;;;1.30;67.00;;;;;;6046937;23;20651;-71
2023/04/04 02:53:13;;;;;;;3.40;1.27;;;1.10;67.80;;;;;;6046185;23;20676;-71
2023/04/04 02:55:38;;;;;;;5.27;2.23;;;1.00;69.10;;;;;;6070677;23;20377;-70
2023/04/04 02:58:04;;;;;;;1.80;1.20;;;0.90;70.20;;;;;;6080914;23;20172;-70
2023/04/04 03:00:30;;;;;;;8.07;1.90;;;0.90;71.20;;;;;;6045512;23;20209;-71
2023/04/04 03:02:56;;;;;;;4.60;1.90;;;0.90;70.40;;;;;;6079807;23;20180;-71
2023/04/04 03:05:29;;;;;;;2.47;1.53;;;1.10;69.40;;;;;;6021943;23;20146;-70
2023/04/04 03:07:58;;;;;;;3.83;1.77;;;1.00;69.30;;;;;;6055619;23;20449;-69
2023/04/04 03:10:30;;;;;;;4.40;1.60;;;1.00;69.80;;;;;;6022093;23;20841;-72
2023/04/04 03:12:56;;;;;;;2.70;1.60;;;1.00;70.60;;;;;;6045822;23;20425;-70
2023/04/04 03:15:24;;;;;;;2.23;1.70;;;1.00;71.40;;;;;;6045008;23;20492;-71
2023/04/04 03:17:50;;;;;;;3.07;1.67;;;1.00;71.60;;;;;;6047007;23;20491;-69
2023/04/04 03:20:16;;;;;;;3.90;1.93;;;0.90;72.00;;;;;;6046347;23;20382;-69
2023/04/04 03:22:43;;;;;;;4.50;1.70;;;0.90;72.60;;;;;;6081537;23;20405;-70
2023/04/04 03:25:09;;;;;;;2.90;1.80;;;0.90;73.30;;;;;;6044687;23;20385;-71
2023/04/04 03:27:35;;;;;;;3.30;1.90;;;0.90;73.10;;;;;;6080107;23;20182;-69
2023/04/04 03:30:01;;;;;;;2.80;1.60;;;0.90;72.00;;;;;;6069755;23;20175;-70
2023/04/04 03:32:30;;;;;;;3.47;1.73;;;1.00;71.50;;;;;;6044172;23;20466;-71
2023/04/04 03:34:56;;;;;;;4.80;1.67;;;1.10;70.90;;;;;;6079304;23;20446;-71
2023/04/04 03:37:21;;;;;;;2.40;1.63;;;1.00;71.20;;;;;;6080108;23;20169;-70
2023/04/04 03:39:47;;;;;;;3.47;2.10;;;1.10;70.80;;;;;;6045610;23;20539;-71
2023/04/04 03:42:13;;;;;;;4.10;1.87;;;1.20;70.10;;;;;;6022305;23;20515;-72
2023/04/04 03:44:40;;;;;;;4.30;1.63;;;1.10;70.10;;;;;;6022562;23;20389;-68
2023/04/04 03:47:08;;;;;;;4.80;1.90;;;1.10;70.10;;;;;;6023581;23;20201;-69
2023/04/04 03:49:34;;;;;;;2.50;1.57;;;1.00;70.20;;;;;;6079923;23;20370;-71
2023/04/04 03:52:01;;;;;;;4.73;1.77;;;1.00;70.50;;;;;;6047549;23;20555;-70
2023/04/04 03:54:27;;;;;;;2.60;2.17;;;1.00;70.20;;;;;;6080318;23;20508;-71
2023/04/04 03:56:54;;;;;;;3.23;1.70;;;0.90;71.00;;;;;;6079675;23;20420;-72
2023/04/04 03:59:20;;;;;;;2.20;1.70;;;0.80;72.30;;;;;;6081888;23;20783;-71
2023/04/04 04:01:46;;;;;;;7.10;1.70;;;0.70;73.60;;;;;;6047335;23;20405;-68
2023/04/04 04:04:11;;;;;;;6.77;1.77;;;0.70;75.00;;;;;;6068516;23;20392;-71
2023/04/04 04:06:39;;;;;;;4.93;1.90;;;0.60;75.80;;;;;;6080082;23;20138;-69
2023/04/04 04:09:04;;;;;;;3.33;1.60;;;0.60;77.40;;;;;;6080536;23;20373;-69
2023/04/04 04:11:30;;;;;;;2.53;1.80;;;0.50;77.20;;;;;;6044821;23;20421;-71
2023/04/04 04:13:56;;;;;;;3.40;2.00;;;0.50;77.10;;;;;;6021208;23;20160;-71
2023/04/04 04:16:21;;;;;;;4.03;1.53;;;0.60;77.50;;;;;;6045090;23;20209;-69
2023/04/04 04:18:48;;;;;;;4.40;2.10;;;0.50;77.60;;;;;;6045039;23;20511;-72
2023/04/04 04:21:20;;;;;;;9.10;2.10;;;0.50;77.90;;;;;;6045094;23;20545;-71
2023/04/04 04:23:46;;;;;;;4.00;1.60;;;0.50;78.10;;;;;;6080509;23;20373;-70
2023/04/04 04:26:12;;;;;;;4.73;1.70;;;0.40;78.30;;;;;;6081004;23;20193;-71
2023/04/04 04:28:37;;;;;;;4.17;2.10;;;0.40;78.40;;;;;;6085427;23;20134;-71
2023/04/04 04:31:09;;;;;;;6.30;2.83;;;0.40;78.60;;;;;;6055866;23;20281;-71
2023/04/04 04:33:41;;;;;;;3.47;1.50;;;0.40;78.70;;;;;;6090626;23;20381;-70
2023/04/04 04:36:07;;;;;;;4.23;1.40;;;0.40;78.60;;;;;;6057576;23;20515;-71
2023/04/04 04:39:08;;;;;;;6.23;1.73;;;0.40;78.60;;;;;;6074891;23;20159;-71
2023/04/04 04:41:38;;;;;;;4.30;1.80;;;0.30;78.60;;;;;;6051141;23;20503;-70
2023/04/04 04:44:04;;;;;;;3.77;2.10;;;0.40;79.30;;;;;;6053208;23;20659;-71
2023/04/04 04:46:31;;;;;;;3.30;1.97;;;0.40;79.50;;;;;;6052631;23;20400;-71
2023/04/04 04:48:58;;;;;;;3.27;1.80;;;0.40;79.30;;;;;;6048965;23;20405;-71
2023/04/04 04:51:28;;;;;;;3.53;2.13;;;0.40;79.50;;;;;;6074111;23;20863;-71
2023/04/04 04:53:55;;;;;;;2.30;1.37;;;0.40;79.80;;;;;;6049656;23;20393;-72
2023/04/04 04:56:23;;;;;;;3.30;1.57;;;0.50;78.60;;;;;;6049240;23;20439;-70
2023/04/04 04:58:51;;;;;;;9.50;2.03;;;0.60;78.00;;;;;;6083565;23;20397;-70
2023/04/04 05:01:22;;;;;;;3.17;1.60;;;0.50;78.30;;;;;;6051982;23;20409;-72
2023/04/04 05:03:48;;;;;;;3.00;1.80;;;0.50;78.30;;;;;;6056470;23;20620;-71
2023/04/04 05:06:20;;;;;;;2.13;1.50;;;0.50;78.30;;;;;;6056824;23;20394;-71
2023/04/04 05:08:46;;;;;;;5.37;1.93;;;0.40;78.70;;;;;;6054951;23;20396;-72
2023/04/04 05:11:21;;;;;;;5.17;1.93;;;0.40;78.30;;;;;;6054938;23;20464;-69
2023/04/04 05:13:47;;;;;;;2.23;1.67;;;0.50;77.70;;;;;;6032131;23;20390;-71
2023/04/04 05:16:14;;;;;;;5.83;1.87;;;0.50;77.70;;;;;;6032385;23;20610;-71
2023/04/04 05:18:44;;;;;;;2.37;1.67;;;0.40;77.70;;;;;;6077615;23;20402;-71
2023/04/04 05:21:10;;;;;;;5.00;2.10;;;0.50;77.70;;;;;;6055383;23;20448;-72
2023/04/04 05:23:38;;;;;;;7.00;2.27;;;0.50;77.60;;;;;;6090529;23;20369;-73
2023/04/04 05:26:06;;;;;;;7.33;1.90;;;0.50;77.70;;;;;;6083537;23;20369;-71
2023/04/04 05:28:35;;;;;;;5.10;2.57;;;0.50;78.00;;;;;;6033615;23;20386;-72
2023/04/04 05:31:04;;;;;;;3.43;1.80;;;0.60;76.90;;;;;;6057579;23;20381;-72
2023/04/04 05:33:32;;;;;;;3.20;2.10;;;0.60;76.60;;;;;;6031844;23;20437;-72
2023/04/04 05:36:07;;;;;;;4.77;2.13;;;0.70;76.20;;;;;;6081878;23;20416;-73
2023/04/04 05:38:39;;;;;;;4.10;2.07;;;0.80;74.50;;;;;;6057702;23;20866;-73
2023/04/04 05:41:06;;;;;;;4.30;2.20;;;0.90;74.20;;;;;;6084657;23;20392;-70
2023/04/04 05:43:32;;;;;;;6.40;1.37;;;1.00;73.10;;;;;;6069564;23;20426;-74
2023/04/04 05:46:05;;;;;;;3.53;1.77;;;1.00;72.20;;;;;;6058747;23;20227;-73
2023/04/04 05:48:38;;;;;;;2.83;1.53;;;1.00;71.90;;;;;;6015382;23;20389;-73
2023/04/04 05:51:04;;;;;;;2.23;1.80;;;1.10;71.80;;;;;;6093635;23;20378;-71
2023/04/04 05:53:40;;;;;;;2.87;1.70;;;1.10;71.80;;;;;;6093442;23;20133;-72
2023/04/04 05:56:06;;;;;;;4.00;2.43;;;1.20;71.70;;;;;;6083649;23;20404;-71
2023/04/04 05:58:33;;;;;;;10.70;2.90;;;1.20;71.60;;;;;;6033682;23;20426;-70
2023/04/04 06:01:02;;;;;;;2.07;1.37;;;1.30;70.90;;;;;;6056471;23;20378;-71
2023/04/04 06:03:27;;;;;;;3.30;1.80;;;1.30;70.70;;;;;;6055746;23;20381;-71
2023/04/04 06:05:55;;;;;;;2.97;1.70;;;1.40;68.80;;;;;;6058704;23;20394;-73
2023/04/04 06:08:21;;;;;;;4.33;2.30;;;1.60;66.60;;;;;;6059672;23;20389;-71
2023/04/04 06:10:47;;;;;;;3.40;2.23;;;1.80;65.30;;;;;;6094500;23;20414;-72
2023/04/04 06:13:12;;;;;;;4.07;1.80;;;1.90;64.50;;;;;;6059321;23;20186;-73
2023/04/04 06:15:40;;;;;;;5.27;1.90;;;1.90;64.30;;;;;;6083025;23;20159;-73
2023/04/04 06:18:06;;;;;;;8.77;2.40;;;1.90;65.00;;;;;;6070696;23;20414;-72
2023/04/04 06:20:32;;;;;;;3.33;1.80;;;2.00;62.70;;;;;;6059116;23;20222;-70
2023/04/04 06:23:00;;;;;;;6.20;1.43;;;2.00;61.20;;;;;;6082347;23;20405;-72
2023/04/04 06:25:27;;;;;;;3.43;1.87;;;2.10;60.10;;;;;;6060746;23;20150;-73
2023/04/04 06:27:56;;;;;;;3.27;1.87;;;2.10;60.00;;;;;;6060008;23;20453;-71
2023/04/04 06:30:22;;;;;;;5.80;1.60;;;2.20;59.20;;;;;;6063019;23;20386;-72
2023/04/04 06:32:50;;;;;;;2.60;1.80;;;2.20;59.00;;;;;;6063749;23;20411;-75
2023/04/04 06:35:20;;;;;;;2.10;1.50;;;2.20;58.80;;;;;;6064716;23;20389;-74
2023/04/04 06:37:55;;;;;;;5.30;2.50;;;2.40;57.70;;;;;;6065963;23;20446;-74
2023/04/04 06:40:21;;;;;;;4.17;2.50;;;2.40;58.00;;;;;;6089371;23;20389;-75
2023/04/04 06:42:56;;;;;;;7.10;1.60;;;2.40;57.90;;;;;;6063705;23;20439;-74
2023/04/04 06:45:24;;;;;;;4.43;1.93;;;2.50;58.20;;;;;;6041366;23;20373;-74
2023/04/04 06:47:53;;;;;;;6.63;1.70;;;2.50;57.90;;;;;;6061286;23;20863;-72
2023/04/04 06:50:22;;;;;;;7.37;2.27;;;2.60;57.90;;;;;;6061536;23;20401;-72
2023/04/04 06:52:48;;;;;;;3.40;1.60;;;2.70;57.00;;;;;;6035163;23;20842;-72
2023/04/04 06:55:15;;;;;;;4.60;1.60;;;2.70;56.40;;;;;;6059871;23;20436;-73
2023/04/04 06:57:42;;;;;;;3.60;2.10;;;2.80;56.50;;;;;;6035522;23;20413;-74
2023/04/04 07:00:10;;;;;;;4.30;2.15;;;2.90;55.70;;;;;;6071687;23;20398;-72
2023/04/04 07:02:36;;;;;;;2.60;2.07;;;3.00;54.20;;;;;;6058075;23;20205;-72
2023/04/04 07:05:03;;;;;;;3.83;2.40;;;3.10;54.20;;;;;;6034819;23;20381;-73
2023/04/04 07:07:28;;;;;;;5.63;2.17;;;3.20;53.60;;;;;;6034271;23;20157;-71
2023/04/04 07:09:55;;;;;;;4.20;2.70;;;3.10;53.60;;;;;;6058820;23;20382;-74
2023/04/04 07:12:21;;;;;;;6.30;2.17;;;3.00;54.00;;;;;;6088847;23;20221;-74
2023/04/04 07:14:46;;;;;;;3.77;1.77;;;3.10;53.90;;;;;;6072331;23;20394;-71
2023/04/04 07:17:13;;;;;;;3.33;2.03;;;3.10;53.70;;;;;;6085802;23;20450;-73
2023/04/04 07:19:39;;;;;;;3.20;1.73;;;3.00;53.90;;;;;;6097949;23;20128;-74
2023/04/04 07:22:05;;;;;;;6.43;2.97;;;3.10;54.10;;;;;;6039048;23;20762;-73
2023/04/04 07:24:31;;;;;;;3.70;2.10;;;3.20;53.60;;;;;;6061903;23;20391;-74
2023/04/04 07:27:02;;;;;;;4.60;2.10;;;3.30;53.30;;;;;;6072827;23;20144;-75
2023/04/04 07:29:28;;;;;;;4.27;1.70;;;3.30;53.30;;;;;;6061083;23;20440;-74
2023/04/04 07:31:53;;;;;;;5.93;1.60;;;3.50;52.30;;;;;;6085463;23;20405;-74
2023/04/04 07:34:25;;;;;;;3.20;1.67;;;3.50;51.50;;;;;;6096441;23;20133;-74
2023/04/04 07:37:03;;;;;;;4.10;2.17;;;3.60;51.50;;;;;;6075021;23;20433;-75
2023/04/04 07:39:28;;;;;;;5.43;2.80;;;3.60;51.70;;;;;;6085329;23;20417;-74
2023/04/04 07:41:54;;;;;;;5.27;2.10;;;3.60;51.30;;;;;;6053620;23;20462;-76
2023/04/04 07:44:20;;;;;;;3.33;2.20;;;3.80;51.20;;;;;;6010719;23;20146;-74
2023/04/04 07:46:49;;;;;;;4.00;1.73;;;3.80;51.00;;;;;;6035885;23;20157;-75
2023/04/04 07:49:15;;;;;;;3.33;1.90;;;3.90;50.50;;;;;;6035330;23;20161;-74
2023/04/04 07:51:41;;;;;;;2.33;1.40;;;4.00;49.80;;;;;;6036043;23;20453;-74
2023/04/04 07:54:07;;;;;;;8.93;2.00;;;3.90;49.50;;;;;;6036645;23;20142;-75
2023/04/04 07:56:33;;;;;;;5.20;1.77;;;4.00;49.60;;;;;;6069984;23;20399;-76
2023/04/04 07:58:59;;;;;;;2.90;1.40;;;4.10;49.90;;;;;;6037654;23;20161;-76
2023/04/04 08:01:28;;;;;;;3.20;2.07;;;4.20;48.90;;;;;;6040437;23;20406;-75
2023/04/04 08:03:55;;;;;;;7.90;2.90;;;4.30;48.80;;;;;;6037682;23;20375;-75
2023/04/04 08:06:22;;;;;;;5.17;2.23;;;4.30;48.90;;;;;;6037850;23;20386;-74
2023/04/04 08:08:48;;;;;;;3.23;2.30;;;4.30;49.30;;;;;;6011698;23;20362;-75
2023/04/04 08:11:14;;;;;;;5.20;1.73;;;4.40;49.10;;;;;;6034897;23;20382;-75
2023/04/04 08:13:40;;;;;;;3.50;1.63;;;4.50;48.70;;;;;;6038039;23;20426;-75
2023/04/04 08:16:06;;;;;;;6.60;2.70;;;4.50;48.60;;;;;;6014259;23;20154;-76
2023/04/04 08:18:32;;;;;;;3.20;2.20;;;4.60;48.10;;;;;;6004380;24;20423;-75
2023/04/04 08:21:03;;;;;;;3.90;2.30;;;4.60;47.80;;;;;;6002193;23;20416;-75
2023/04/04 08:23:29;;;;;;;3.87;1.80;;;4.70;47.40;;;;;;6010969;24;20181;-76
2023/04/04 08:25:58;;;;;;;2.17;1.90;;;4.70;47.30;;;;;;5955828;24;20384;-75
2023/04/04 08:28:31;;;;;;;3.63;2.47;;;4.70;46.60;;;;;;6014768;24;20459;-74
2023/04/04 08:30:57;;;;;;;3.50;1.80;;;4.80;45.80;;;;;;6004430;23;20392;-76
2023/04/04 08:33:24;;;;;;;2.90;2.13;;;4.80;45.50;;;;;;6004719;24;20448;-76
2023/04/04 08:35:57;;;;;;;4.57;2.07;;;4.90;45.10;;;;;;5959322;24;20467;-76
2023/04/04 08:38:23;;;;;;;8.00;3.20;;;4.90;45.60;;;;;;6003937;23;20435;-75
2023/04/04 08:40:49;;;;;;;6.63;3.40;;;4.90;45.00;;;;;;5980112;24;20404;-76
2023/04/04 08:43:18;;;;;;;2.43;2.10;;;5.00;45.20;;;;;;6029067;23;20451;-76
2023/04/04 08:45:45;;;;;;;3.90;2.30;;;5.00;45.70;;;;;;6032419;23;20375;-76
2023/04/04 08:48:12;;;;;;;3.17;1.80;;;5.00;45.70;;;;;;6032613;23;20363;-76
2023/04/04 08:50:43;;;;;;;4.40;2.60;;;5.10;45.70;;;;;;6044026;23;20418;-76
2023/04/04 08:53:10;;;;;;;3.40;2.53;;;5.30;44.90;;;;;;6034903;23;20439;-75
2023/04/04 08:58:30;;;;;;;5.43;3.10;;;5.30;44.60;;;;;;6062726;23;20457;-75
2023/04/04 09:01:00;;;;;;;3.50;2.87;;;5.30;44.60;;;;;;6038327;23;20383;-77
2023/04/04 09:03:37;;;;;;;4.47;2.37;;;5.30;44.60;;;;;;6091042;23;20365;-75
2023/04/04 09:06:03;;;;;;;3.30;2.40;;;5.40;44.40;;;;;;6040303;23;20691;-75
2023/04/04 09:08:30;;;;;;;4.57;2.90;;;5.50;43.80;;;;;;6102355;23;20421;-75
2023/04/04 09:11:02;;;;;;;5.63;2.87;;;5.60;43.80;;;;;;6067522;23;20396;-75
2023/04/04 09:13:31;;;;;;;5.30;3.00;;;5.70;43.50;;;;;;6044284;23;20425;-74
2023/04/04 09:16:02;;;;;;;3.73;2.67;;;5.60;43.20;;;;;;6042839;23;20393;-75
2023/04/04 09:18:33;;;;;;;5.00;3.73;;;5.70;43.60;;;;;;6041791;23;20497;-75
2023/04/04 09:21:07;;;;;;;3.80;2.10;;;5.70;43.50;;;;;;6042727;23;20405;-74
2023/04/04 09:23:33;;;;;;;3.73;2.60;;;5.70;43.60;;;;;;6076484;23;20381;-77
2023/04/04 09:25:58;;;;;;;5.10;2.40;;;5.80;43.30;;;;;;6042405;23;20402;-76
2023/04/04 09:28:26;;;;;;;3.47;2.67;;;5.70;43.30;;;;;;6043480;23;20161;-76
2023/04/04 09:30:53;;;;;;;4.20;2.73;;;5.70;43.10;;;;;;6065883;23;20153;-76
2023/04/04 09:33:23;;;;;;;5.10;2.90;;;5.60;43.40;;;;;;6044179;23;20416;-76
2023/04/04 09:35:53;;;;;;;5.00;2.60;;;5.70;43.50;;;;;;6043179;23;20417;-76
2023/04/04 09:38:25;;;;;;;8.23;3.27;;;5.70;43.90;;;;;;6042494;23;20444;-75
2023/04/04 09:40:57;;;;;;;7.77;2.43;;;5.80;43.20;;;;;;6067144;23;20385;-75
2023/04/04 09:43:25;;;;;;;3.20;2.67;;;5.90;43.00;;;;;;6043100;23;20389;-75
2023/04/04 09:45:56;;;;;;;4.90;2.80;;;5.90;42.70;;;;;;6042765;23;20385;-76
2023/04/04 09:48:36;;;;;;;3.63;2.83;;;5.90;42.80;;;;;;6069478;23;20374;-75
2023/04/04 09:51:11;;;;;;;3.97;2.67;;;6.00;43.10;;;;;;6067899;23;20424;-76
2023/04/04 09:53:40;;;;;;;6.80;3.57;;;6.00;43.30;;;;;;6042810;23;20446;-76
2023/04/04 09:56:21;;;;;;;5.40;2.73;;;6.10;43.20;;;;;;6067178;23;20374;-75
2023/04/04 09:58:48;;;;;;;5.70;2.57;;;6.20;42.70;;;;;;6049633;23;20475;-76
2023/04/04 10:01:16;;;;;;;3.20;2.50;;;6.20;42.60;;;;;;6096173;23;20388;-76
2023/04/04 10:03:53;;;;;;;5.47;2.53;;;6.20;42.00;;;;;;6119727;23;20445;-76
2023/04/04 10:06:22;;;;;;;6.03;3.03;;;6.40;41.90;;;;;;6073184;23;20412;-76
2023/04/04 10:08:48;;;;;;;3.67;2.80;;;6.30;41.80;;;;;;6107206;23;20420;-76
2023/04/04 10:11:29;;;;;;;5.03;2.47;;;6.30;41.80;;;;;;6097759;23;20429;-77
2023/04/04 10:13:59;;;;;;;5.20;3.23;;;6.50;42.20;;;;;;6067615;23;20439;-75
2023/04/04 10:16:26;;;;;;;7.40;3.33;;;6.60;41.70;;;;;;6101831;23;20427;-74
2023/04/04 10:18:53;;;;;;;9.33;3.53;;;6.50;41.60;;;;;;6103623;23;20388;-76
2023/04/04 10:21:31;;;;;;;4.87;3.33;;;6.50;41.30;;;;;;6126641;23;20402;-76
2023/04/04 10:24:08;;;;;;;5.37;2.90;;;6.40;41.60;;;;;;6003600;23;20390;-76
2023/04/04 10:26:34;;;;;;;5.30;2.80;;;6.60;42.20;;;;;;6038549;23;20469;-76
2023/04/04 10:29:00;;;;;;;5.07;3.50;;;6.70;41.70;;;;;;6072315;23;20382;-74
2023/04/04 10:31:28;;;;;;;4.00;2.57;;;6.70;41.50;;;;;;6038146;23;20425;-75
2023/04/04 10:34:19;;;;;;;4.93;3.07;;;6.80;41.20;;;;;;6038190;23;20402;-76
2023/04/04 10:36:49;;;;;;;4.80;2.67;;;7.00;41.60;;;;;;6014557;23;20418;-76
2023/04/04 10:39:31;;;;;;;5.83;3.50;;;7.00;41.50;;;;;;6016576;23;20418;-76
2023/04/04 10:42:00;;;;;;;4.47;3.17;;;7.00;41.60;;;;;;6014362;23;20406;-76
2023/04/04 10:44:32;;;;;;;4.10;3.37;;;7.00;41.60;;;;;;6015006;23;20410;-77
2023/04/04 10:47:20;;;;;;;4.70;3.00;;;7.00;41.50;;;;;;6036650;23;20390;-75
2023/04/04 10:49:52;;;;;;;7.80;2.70;;;7.20;41.60;;;;;;6036131;23;20393;-75
2023/04/04 10:52:23;;;;;;;3.90;3.20;;;7.20;41.40;;;;;;6012892;23;20433;-77
2023/04/04 10:55:16;;;;;;;4.27;2.60;;;7.00;41.40;;;;;;6058733;23;20368;-76
2023/04/04 10:57:54;;;;;;;5.90;2.90;;;7.10;41.80;;;;;;6126463;23;20427;-77
2023/04/04 11:00:30;;;;;;;3.30;2.60;;;7.30;41.30;;;;;;6079706;23;20396;-76
2023/04/04 11:05:50;;;;;;;5.80;4.00;;;7.30;40.80;;;;;;6150028;23;20544;-76
2023/04/04 11:08:25;;;;;;;7.90;3.07;;;7.30;40.60;;;;;;6101309;23;20407;-75
2023/04/04 11:14:00;;;;;;;3.77;3.20;;;7.40;40.50;;;;;;6133507;23;20478;-77
2023/04/04 11:16:47;;;;;;;4.73;3.07;;;7.50;39.80;;;;;;6150125;23;20383;-76
2023/04/04 11:19:15;;;;;;;4.07;2.97;;;7.70;39.80;;;;;;6125525;23;20458;-76
2023/04/04 11:21:51;;;;;;;6.00;3.30;;;7.60;39.50;;;;;;6114099;23;20430;-77
2023/04/04 11:24:17;;;;;;;4.60;3.47;;;7.70;39.90;;;;;;6100340;23;20395;-77
2023/04/04 11:26:44;;;;;;;6.33;4.10;;;7.70;40.20;;;;;;6102865;23;20399;-76
2023/04/04 11:29:43;;;;;;;4.60;3.27;;;7.70;40.00;;;;;;6126708;23;20714;-75
2023/04/04 11:32:32;;;;;;;4.60;2.63;;;7.60;40.30;;;;;;6100060;23;20451;-75
2023/04/04 11:35:07;;;;;;;4.87;2.80;;;7.60;40.40;;;;;;6162584;23;20408;-77
2023/04/04 11:38:13;;;;;;;4.30;3.20;;;7.70;40.10;;;;;;6101668;23;20432;-76
2023/04/04 11:40:41;;;;;;;4.37;3.10;;;8.00;37.90;;;;;;6008485;23;20435;-77
2023/04/04 11:43:11;;;;;;;4.57;3.33;;;8.10;37.40;;;;;;6010684;23;20489;-77
2023/04/04 11:45:45;;;;;;;6.60;3.47;;;8.10;37.20;;;;;;6044691;23;20375;-75
2023/04/04 11:48:16;;;;;;;5.13;3.20;;;8.00;37.00;;;;;;6011997;23;20410;-77
2023/04/04 11:50:48;;;;;;;6.27;3.67;;;7.90;37.30;;;;;;6010954;23;20701;-77
2023/04/04 11:53:17;;;;;;;3.90;2.50;;;7.90;37.60;;;;;;5989403;23;20426;-76
2023/04/04 11:55:49;;;;;;;4.47;2.80;;;7.80;37.40;;;;;;6032644;23;20396;-75
2023/04/04 11:58:19;;;;;;;3.00;2.50;;;7.80;37.80;;;;;;6013365;23;20189;-77
2023/04/04 12:00:49;;;;;;;5.50;2.87;;;7.90;37.50;;;;;;6011040;23;20383;-76
2023/04/04 12:03:20;;;;;;;3.77;3.07;;;8.10;36.80;;;;;;6069103;23;20458;-76
2023/04/04 12:05:51;;;;;;;3.30;2.60;;;8.40;35.60;;;;;;6074180;23;20368;-75
2023/04/04 12:08:22;;;;;;;3.40;2.90;;;8.30;35.40;;;;;;6073600;23;20381;-75
2023/04/04 12:10:49;;;;;;;4.40;2.73;;;8.40;35.40;;;;;;6073148;23;20372;-76
2023/04/04 12:13:31;;;;;;;4.40;2.33;;;8.50;35.20;;;;;;6087711;23;20460;-76
2023/04/04 12:16:06;;;;;;;3.87;2.60;;;8.50;35.00;;;;;;6130902;23;20384;-75
2023/04/04 12:19:13;;;;;;;4.73;2.70;;;8.50;35.10;;;;;;6098345;23;20431;-76
2023/04/04 12:24:29;;;;;;;3.60;2.57;;;8.30;35.20;;;;;;6093284;23;20425;-77
2023/04/04 12:26:57;;;;;;;2.70;2.50;;;8.20;35.40;;;;;;6046548;23;20429;-77
2023/04/04 12:29:34;;;;;;;3.90;2.80;;;8.30;35.80;;;;;;6067955;23;20385;-75
2023/04/04 12:32:06;;;;;;;3.63;2.70;;;8.40;35.00;;;;;;6093607;23;20409;-76
2023/04/04 12:34:33;;;;;;;6.97;2.40;;;8.50;34.00;;;;;;6067718;23;20385;-76
2023/04/04 12:37:03;;;;;;;2.23;2.00;;;8.50;34.00;;;;;;6041193;23;20488;-76
2023/04/04 12:39:29;;;;;;;2.33;1.83;;;8.60;34.20;;;;;;6042236;23;20392;-76
2023/04/04 12:42:04;;;;;;;4.37;2.30;;;8.60;34.00;;;;;;6045152;23;20429;-76
2023/04/04 12:44:31;;;;;;;4.20;3.13;;;8.50;34.40;;;;;;6065904;23;20385;-75
2023/04/04 12:47:06;;;;;;;3.73;3.07;;;8.50;35.30;;;;;;6066565;23;20390;-76
2023/04/04 12:49:49;;;;;;;4.00;3.00;;;8.50;34.80;;;;;;6069131;23;20380;-76
2023/04/04 12:52:26;;;;;;;4.17;2.47;;;8.60;34.90;;;;;;6069713;23;20397;-76
2023/04/04 12:54:57;;;;;;;5.20;3.10;;;8.70;34.50;;;;;;6045632;23;20429;-76
2023/04/04 12:58:01;;;;;;;3.10;2.13;;;8.80;34.30;;;;;;6092294;23;20432;-76
2023/04/04 13:00:33;;;;;;;3.97;2.87;;;9.00;33.40;;;;;;6091524;23;20373;-76
2023/04/04 13:03:12;;;;;;;3.40;2.07;;;9.00;33.30;;;;;;6044917;23;20402;-76
2023/04/04 13:05:40;;;;;;;6.73;2.60;;;9.10;33.40;;;;;;6067440;23;20532;-75
2023/04/04 13:08:19;;;;;;;4.13;2.60;;;9.20;32.70;;;;;;6105622;23;20467;-76
2023/04/04 13:11:04;;;;;;;3.73;2.73;;;9.30;31.90;;;;;;6127335;23;20446;-77
2023/04/04 13:13:39;;;;;;;12.70;2.60;;;9.50;31.60;;;;;;6102733;23;20372;-75
2023/04/04 13:21:44;;;;;;;3.53;2.60;;;9.90;31.70;;;;;;6130247;23;20450;31
2023/04/04 13:24:19;;;;;;;4.60;2.60;;;10.10;30.40;;;;;;6012004;23;20427;-76
2023/04/04 13:27:01;;;;;;;3.30;2.43;;;10.20;30.00;;;;;;6059468;23;20367;-75